sensor_id;sensor_type;location;lat;lon;timestamp;temperature;humidity
11091;DHT22;5599;52.210;21.046;2023-09-19T00:01:53;19.80;1.00
11091;DHT22;5599;52.210;21.046;2023-09-19T00:04:24;19.80;1.00
11091;DHT22;5599;52.210;21.046;2023-09-19T00:06:56;19.80;1.00
11091;DHT22;5599;52.210;21.046;2023-09-19T00:09:25;19.80;1.00
11091;DHT22;5599;52.210;21.046;2023-09-19T00:11:56;19.70;1.00
11091;DHT22;5599;52.210;21.046;2023-09-19T00:14:26;19.80;1.80
11091;DHT22;5599;52.210;21.046;2023-09-19T00:16:56;19.70;1.00
11091;DHT22;5599;52.210;21.046;2023-09-19T00:19:25;19.60;98.60
11091;DHT22;5599;52.210;21.046;2023-09-19T00:21:55;19.60;99.90
11091;DHT22;5599;52.210;21.046;2023-09-19T00:24:24;19.50;99.90
11091;DHT22;5599;52.210;21.046;2023-09-19T00:26:56;19.40;99.90
11091;DHT22;5599;52.210;21.046;2023-09-19T00:29:26;19.40;99.90
11091;DHT22;5599;52.210;21.046;2023-09-19T00:31:56;19.60;99.90
11091;DHT22;5599;52.210;21.046;2023-09-19T00:34:27;19.50;99.90
11091;DHT22;5599;52.210;21.046;2023-09-19T00:36:56;19.60;99.90
11091;DHT22;5599;52.210;21.046;2023-09-19T00:39:25;19.50;99.90
11091;DHT22;5599;52.210;21.046;2023-09-19T00:41:59;19.50;99.90
11091;DHT22;5599;52.210;21.046;2023-09-19T00:44:32;19.50;99.90
11091;DHT22;5599;52.210;21.046;2023-09-19T00:47:05;19.50;99.90
11091;DHT22;5599;52.210;21.046;2023-09-19T00:49:34;19.40;99.90
11091;DHT22;5599;52.210;21.046;2023-09-19T00:52:05;19.40;99.90
11091;DHT22;5599;52.210;21.046;2023-09-19T00:54:38;19.40;99.90
11091;DHT22;5599;52.210;21.046;2023-09-19T00:57:10;19.30;99.90
11091;DHT22;5599;52.210;21.046;2023-09-19T00:59:39;19.30;99.90
11091;DHT22;5599;52.210;21.046;2023-09-19T01:02:09;19.30;99.90
11091;DHT22;5599;52.210;21.046;2023-09-19T01:04:38;19.40;99.90
11091;DHT22;5599;52.210;21.046;2023-09-19T01:07:09;19.40;99.90
11091;DHT22;5599;52.210;21.046;2023-09-19T01:09:38;19.30;99.90
11091;DHT22;5599;52.210;21.046;2023-09-19T01:12:09;19.30;99.90
11091;DHT22;5599;52.210;21.046;2023-09-19T01:14:44;19.30;99.90
11091;DHT22;5599;52.210;21.046;2023-09-19T01:17:25;19.30;99.90
11091;DHT22;5599;52.210;21.046;2023-09-19T01:20:20;19.30;99.90
11091;DHT22;5599;52.210;21.046;2023-09-19T01:23:04;19.30;99.90
11091;DHT22;5599;52.210;21.046;2023-09-19T01:28:52;19.20;99.90
11091;DHT22;5599;52.210;21.046;2023-09-19T01:31:29;19.30;99.90
11091;DHT22;5599;52.210;21.046;2023-09-19T01:34:02;19.20;99.90
11091;DHT22;5599;52.210;21.046;2023-09-19T01:36:35;19.10;99.90
11091;DHT22;5599;52.210;21.046;2023-09-19T01:39:09;19.10;1.00
11091;DHT22;5599;52.210;21.046;2023-09-19T01:41:54;19.10;1.00
11091;DHT22;5599;52.210;21.046;2023-09-19T01:44:31;19.10;1.00
11091;DHT22;5599;52.210;21.046;2023-09-19T01:47:10;19.10;1.00
11091;DHT22;5599;52.210;21.046;2023-09-19T01:49:48;19.00;1.00
11091;DHT22;5599;52.210;21.046;2023-09-19T01:52:20;19.10;1.00
11091;DHT22;5599;52.210;21.046;2023-09-19T01:54:52;19.10;1.00
11091;DHT22;5599;52.210;21.046;2023-09-19T01:57:28;19.20;1.00
11091;DHT22;5599;52.210;21.046;2023-09-19T02:00:03;19.00;1.00
11091;DHT22;5599;52.210;21.046;2023-09-19T02:02:45;18.90;1.00
11091;DHT22;5599;52.210;21.046;2023-09-19T02:05:22;19.00;1.00
11091;DHT22;5599;52.210;21.046;2023-09-19T02:07:52;19.00;1.00
11091;DHT22;5599;52.210;21.046;2023-09-19T02:10:22;19.10;1.00
11091;DHT22;5599;52.210;21.046;2023-09-19T02:12:51;19.10;1.00
11091;DHT22;5599;52.210;21.046;2023-09-19T02:15:21;19.20;1.00
11091;DHT22;5599;52.210;21.046;2023-09-19T02:17:51;19.10;1.00
11091;DHT22;5599;52.210;21.046;2023-09-19T02:20:21;19.10;1.00
11091;DHT22;5599;52.210;21.046;2023-09-19T02:22:50;19.00;1.00
11091;DHT22;5599;52.210;21.046;2023-09-19T02:25:19;19.00;1.00
11091;DHT22;5599;52.210;21.046;2023-09-19T02:27:49;19.10;1.00
11091;DHT22;5599;52.210;21.046;2023-09-19T02:30:22;19.10;1.00
11091;DHT22;5599;52.210;21.046;2023-09-19T02:32:56;19.20;1.00
11091;DHT22;5599;52.210;21.046;2023-09-19T02:35:25;19.10;99.90
11091;DHT22;5599;52.210;21.046;2023-09-19T02:37:55;19.10;1.00
11091;DHT22;5599;52.210;21.046;2023-09-19T02:40:25;19.00;1.00
11091;DHT22;5599;52.210;21.046;2023-09-19T02:42:56;19.10;1.00
11091;DHT22;5599;52.210;21.046;2023-09-19T02:45:27;19.00;1.00
11091;DHT22;5599;52.210;21.046;2023-09-19T02:47:59;19.00;1.00
11091;DHT22;5599;52.210;21.046;2023-09-19T02:50:30;18.90;1.00
11091;DHT22;5599;52.210;21.046;2023-09-19T02:53:01;18.90;1.00
11091;DHT22;5599;52.210;21.046;2023-09-19T02:55:31;18.90;1.00
11091;DHT22;5599;52.210;21.046;2023-09-19T02:58:00;18.90;1.00
11091;DHT22;5599;52.210;21.046;2023-09-19T03:00:32;18.90;1.00
11091;DHT22;5599;52.210;21.046;2023-09-19T03:03:04;19.00;1.00
11091;DHT22;5599;52.210;21.046;2023-09-19T03:05:36;19.00;1.00
11091;DHT22;5599;52.210;21.046;2023-09-19T03:08:06;18.90;1.00
11091;DHT22;5599;52.210;21.046;2023-09-19T03:10:35;18.80;1.00
11091;DHT22;5599;52.210;21.046;2023-09-19T03:13:05;18.70;1.00
11091;DHT22;5599;52.210;21.046;2023-09-19T03:15:41;18.70;1.00
11091;DHT22;5599;52.210;21.046;2023-09-19T03:18:13;18.60;1.00
11091;DHT22;5599;52.210;21.046;2023-09-19T03:20:42;18.60;1.00
11091;DHT22;5599;52.210;21.046;2023-09-19T03:23:12;18.60;1.00
11091;DHT22;5599;52.210;21.046;2023-09-19T03:25:42;18.60;1.00
11091;DHT22;5599;52.210;21.046;2023-09-19T03:28:11;18.70;1.00
11091;DHT22;5599;52.210;21.046;2023-09-19T03:30:41;18.70;1.00
11091;DHT22;5599;52.210;21.046;2023-09-19T03:33:13;18.70;1.00
11091;DHT22;5599;52.210;21.046;2023-09-19T03:35:43;18.70;1.00
11091;DHT22;5599;52.210;21.046;2023-09-19T03:38:21;18.70;1.00
11091;DHT22;5599;52.210;21.046;2023-09-19T03:40:50;18.70;1.00
11091;DHT22;5599;52.210;21.046;2023-09-19T03:43:19;18.80;1.00
11091;DHT22;5599;52.210;21.046;2023-09-19T03:45:49;18.80;1.00
11091;DHT22;5599;52.210;21.046;2023-09-19T03:48:20;18.80;1.00
11091;DHT22;5599;52.210;21.046;2023-09-19T03:50:51;18.80;1.00
11091;DHT22;5599;52.210;21.046;2023-09-19T03:53:21;18.80;1.00
11091;DHT22;5599;52.210;21.046;2023-09-19T03:55:50;18.80;1.00
11091;DHT22;5599;52.210;21.046;2023-09-19T03:58:19;18.80;1.00
11091;DHT22;5599;52.210;21.046;2023-09-19T04:00:49;18.80;1.00
11091;DHT22;5599;52.210;21.046;2023-09-19T04:03:20;18.80;1.00
11091;DHT22;5599;52.210;21.046;2023-09-19T04:05:50;18.70;1.00
11091;DHT22;5599;52.210;21.046;2023-09-19T04:08:19;18.70;1.00
11091;DHT22;5599;52.210;21.046;2023-09-19T04:10:49;18.60;1.00
11091;DHT22;5599;52.210;21.046;2023-09-19T04:13:19;18.60;1.00
11091;DHT22;5599;52.210;21.046;2023-09-19T04:15:48;18.70;1.00
11091;DHT22;5599;52.210;21.046;2023-09-19T04:18:20;18.60;1.00
11091;DHT22;5599;52.210;21.046;2023-09-19T04:20:52;18.60;1.00
11091;DHT22;5599;52.210;21.046;2023-09-19T04:23:21;18.50;1.00
11091;DHT22;5599;52.210;21.046;2023-09-19T04:25:50;18.50;1.00
11091;DHT22;5599;52.210;21.046;2023-09-19T04:28:20;18.50;1.00
11091;DHT22;5599;52.210;21.046;2023-09-19T04:30:49;18.50;1.00
11091;DHT22;5599;52.210;21.046;2023-09-19T04:33:20;18.50;1.00
11091;DHT22;5599;52.210;21.046;2023-09-19T04:35:50;18.50;1.00
11091;DHT22;5599;52.210;21.046;2023-09-19T04:38:19;18.50;1.00
11091;DHT22;5599;52.210;21.046;2023-09-19T04:40:49;18.50;1.00
11091;DHT22;5599;52.210;21.046;2023-09-19T04:43:18;18.50;1.00
11091;DHT22;5599;52.210;21.046;2023-09-19T04:45:48;18.50;1.00
11091;DHT22;5599;52.210;21.046;2023-09-19T04:48:20;18.50;1.00
11091;DHT22;5599;52.210;21.046;2023-09-19T04:50:49;18.50;1.00
11091;DHT22;5599;52.210;21.046;2023-09-19T04:53:19;18.50;1.00
11091;DHT22;5599;52.210;21.046;2023-09-19T04:55:52;18.60;1.00
11091;DHT22;5599;52.210;21.046;2023-09-19T04:58:35;18.60;1.00
11091;DHT22;5599;52.210;21.046;2023-09-19T05:01:04;18.70;1.00
11091;DHT22;5599;52.210;21.046;2023-09-19T05:03:35;18.70;1.00
11091;DHT22;5599;52.210;21.046;2023-09-19T05:06:05;18.80;1.00
11091;DHT22;5599;52.210;21.046;2023-09-19T05:08:34;18.90;1.00
11091;DHT22;5599;52.210;21.046;2023-09-19T05:11:03;19.00;1.00
11091;DHT22;5599;52.210;21.046;2023-09-19T05:13:34;19.10;1.00
11091;DHT22;5599;52.210;21.046;2023-09-19T05:16:03;19.10;1.00
11091;DHT22;5599;52.210;21.046;2023-09-19T05:18:34;19.10;1.00
11091;DHT22;5599;52.210;21.046;2023-09-19T05:21:04;19.10;1.00
11091;DHT22;5599;52.210;21.046;2023-09-19T05:23:33;19.20;1.00
11091;DHT22;5599;52.210;21.046;2023-09-19T05:26:03;19.20;99.90
11091;DHT22;5599;52.210;21.046;2023-09-19T05:28:33;19.30;99.90
11091;DHT22;5599;52.210;21.046;2023-09-19T05:31:03;19.30;99.90
11091;DHT22;5599;52.210;21.046;2023-09-19T05:33:34;19.40;99.90
11091;DHT22;5599;52.210;21.046;2023-09-19T05:36:05;19.40;99.90
11091;DHT22;5599;52.210;21.046;2023-09-19T05:38:38;19.40;99.90
11091;DHT22;5599;52.210;21.046;2023-09-19T05:41:10;19.40;99.90
11091;DHT22;5599;52.210;21.046;2023-09-19T05:43:42;19.40;99.90
11091;DHT22;5599;52.210;21.046;2023-09-19T05:46:11;19.50;99.90
11091;DHT22;5599;52.210;21.046;2023-09-19T05:48:43;19.50;99.90
11091;DHT22;5599;52.210;21.046;2023-09-19T05:51:15;19.60;99.90
11091;DHT22;5599;52.210;21.046;2023-09-19T05:53:51;19.60;97.50
11091;DHT22;5599;52.210;21.046;2023-09-19T05:56:23;19.70;99.90
11091;DHT22;5599;52.210;21.046;2023-09-19T05:58:53;19.80;53.40
11091;DHT22;5599;52.210;21.046;2023-09-19T06:01:22;19.80;1.00
11091;DHT22;5599;52.210;21.046;2023-09-19T06:03:54;19.90;1.00
11091;DHT22;5599;52.210;21.046;2023-09-19T06:06:23;19.90;1.00
11091;DHT22;5599;52.210;21.046;2023-09-19T06:08:52;20.00;1.00
11091;DHT22;5599;52.210;21.046;2023-09-19T06:11:22;20.10;99.90
11091;DHT22;5599;52.210;21.046;2023-09-19T06:13:54;20.20;1.00
11091;DHT22;5599;52.210;21.046;2023-09-19T06:16:23;20.20;1.00
11091;DHT22;5599;52.210;21.046;2023-09-19T06:18:55;20.30;99.90
11091;DHT22;5599;52.210;21.046;2023-09-19T06:21:26;20.40;1.00
11091;DHT22;5599;52.210;21.046;2023-09-19T06:23:55;20.50;1.00
11091;DHT22;5599;52.210;21.046;2023-09-19T06:26:25;20.70;47.50
11091;DHT22;5599;52.210;21.046;2023-09-19T06:28:57;20.90;33.60
11091;DHT22;5599;52.210;21.046;2023-09-19T06:31:28;20.90;1.00
11091;DHT22;5599;52.210;21.046;2023-09-19T06:34:01;21.00;99.90
11091;DHT22;5599;52.210;21.046;2023-09-19T06:36:31;21.10;1.00
11091;DHT22;5599;52.210;21.046;2023-09-19T06:39:01;21.10;99.90
11091;DHT22;5599;52.210;21.046;2023-09-19T06:41:32;21.20;1.00
11091;DHT22;5599;52.210;21.046;2023-09-19T06:44:07;21.40;1.00
11091;DHT22;5599;52.210;21.046;2023-09-19T06:46:38;21.60;99.90
11091;DHT22;5599;52.210;21.046;2023-09-19T06:49:10;21.70;99.90
11091;DHT22;5599;52.210;21.046;2023-09-19T06:51:44;21.90;99.90
11091;DHT22;5599;52.210;21.046;2023-09-19T06:54:18;21.90;99.90
11091;DHT22;5599;52.210;21.046;2023-09-19T06:56:48;21.90;84.60
11091;DHT22;5599;52.210;21.046;2023-09-19T06:59:18;22.00;99.90
11091;DHT22;5599;52.210;21.046;2023-09-19T07:01:48;22.20;99.90
11091;DHT22;5599;52.210;21.046;2023-09-19T07:04:20;22.60;99.90
11091;DHT22;5599;52.210;21.046;2023-09-19T07:06:51;23.20;1.00
11091;DHT22;5599;52.210;21.046;2023-09-19T07:09:23;23.60;1.00
11091;DHT22;5599;52.210;21.046;2023-09-19T07:11:55;24.10;92.50
11091;DHT22;5599;52.210;21.046;2023-09-19T07:14:25;24.60;1.00
11091;DHT22;5599;52.210;21.046;2023-09-19T07:16:54;25.10;99.90
11091;DHT22;5599;52.210;21.046;2023-09-19T07:19:25;25.60;79.20
11091;DHT22;5599;52.210;21.046;2023-09-19T07:21:56;25.80;1.00
11091;DHT22;5599;52.210;21.046;2023-09-19T07:24:27;26.10;1.00
11091;DHT22;5599;52.210;21.046;2023-09-19T07:26:57;26.60;1.00
11091;DHT22;5599;52.210;21.046;2023-09-19T07:29:27;26.70;99.90
11091;DHT22;5599;52.210;21.046;2023-09-19T07:31:56;26.70;99.90
11091;DHT22;5599;52.210;21.046;2023-09-19T07:34:27;26.60;99.90
11091;DHT22;5599;52.210;21.046;2023-09-19T07:36:57;26.40;99.90
11091;DHT22;5599;52.210;21.046;2023-09-19T07:39:27;26.30;99.90
11091;DHT22;5599;52.210;21.046;2023-09-19T07:41:57;26.10;99.90
11091;DHT22;5599;52.210;21.046;2023-09-19T07:44:27;26.00;99.90
11091;DHT22;5599;52.210;21.046;2023-09-19T07:46:57;26.00;99.90
11091;DHT22;5599;52.210;21.046;2023-09-19T07:49:28;26.30;99.90
11091;DHT22;5599;52.210;21.046;2023-09-19T07:52:03;26.60;99.90
11091;DHT22;5599;52.210;21.046;2023-09-19T07:54:33;27.00;99.90
11091;DHT22;5599;52.210;21.046;2023-09-19T07:57:03;27.30;99.90
11091;DHT22;5599;52.210;21.046;2023-09-19T07:59:33;27.30;99.90
11091;DHT22;5599;52.210;21.046;2023-09-19T08:02:03;27.30;99.90
11091;DHT22;5599;52.210;21.046;2023-09-19T08:04:34;27.30;99.90
11091;DHT22;5599;52.210;21.046;2023-09-19T08:07:04;27.40;99.90
11091;DHT22;5599;52.210;21.046;2023-09-19T08:09:33;27.20;99.90
11091;DHT22;5599;52.210;21.046;2023-09-19T08:12:05;27.10;99.90
11091;DHT22;5599;52.210;21.046;2023-09-19T08:14:36;27.10;99.90
11091;DHT22;5599;52.210;21.046;2023-09-19T08:17:06;27.00;99.90
11091;DHT22;5599;52.210;21.046;2023-09-19T08:19:37;27.00;99.90
11091;DHT22;5599;52.210;21.046;2023-09-19T08:22:10;27.10;99.90
11091;DHT22;5599;52.210;21.046;2023-09-19T08:24:39;27.10;99.90
11091;DHT22;5599;52.210;21.046;2023-09-19T08:27:11;27.00;99.90
11091;DHT22;5599;52.210;21.046;2023-09-19T08:29:40;27.10;99.90
11091;DHT22;5599;52.210;21.046;2023-09-19T08:32:10;27.20;99.90
11091;DHT22;5599;52.210;21.046;2023-09-19T08:34:41;27.40;99.90
11091;DHT22;5599;52.210;21.046;2023-09-19T08:37:11;27.50;99.90
11091;DHT22;5599;52.210;21.046;2023-09-19T08:39:40;27.50;99.90
11091;DHT22;5599;52.210;21.046;2023-09-19T08:42:13;27.60;99.90
11091;DHT22;5599;52.210;21.046;2023-09-19T08:44:44;27.70;99.90
11091;DHT22;5599;52.210;21.046;2023-09-19T08:47:15;27.50;99.90
11091;DHT22;5599;52.210;21.046;2023-09-19T08:49:53;27.30;99.90
11091;DHT22;5599;52.210;21.046;2023-09-19T08:52:32;27.10;99.90
11091;DHT22;5599;52.210;21.046;2023-09-19T08:55:03;26.90;99.90
11091;DHT22;5599;52.210;21.046;2023-09-19T08:57:38;26.70;99.90
11091;DHT22;5599;52.210;21.046;2023-09-19T09:00:11;26.60;99.90
11091;DHT22;5599;52.210;21.046;2023-09-19T09:02:45;26.40;99.90
11091;DHT22;5599;52.210;21.046;2023-09-19T09:05:18;26.30;99.90
11091;DHT22;5599;52.210;21.046;2023-09-19T09:07:52;25.90;99.90
11091;DHT22;5599;52.210;21.046;2023-09-19T09:10:23;25.90;99.90
11091;DHT22;5599;52.210;21.046;2023-09-19T09:12:53;25.70;99.90
11091;DHT22;5599;52.210;21.046;2023-09-19T09:15:23;25.70;99.90
11091;DHT22;5599;52.210;21.046;2023-09-19T09:17:53;25.70;99.90
11091;DHT22;5599;52.210;21.046;2023-09-19T09:20:28;25.60;99.90
11091;DHT22;5599;52.210;21.046;2023-09-19T09:22:57;25.40;99.90
11091;DHT22;5599;52.210;21.046;2023-09-19T09:25:49;25.10;99.90
11091;DHT22;5599;52.210;21.046;2023-09-19T09:28:23;25.00;1.00
11091;DHT22;5599;52.210;21.046;2023-09-19T09:30:54;25.00;1.00
11091;DHT22;5599;52.210;21.046;2023-09-19T09:33:24;24.80;1.00
11091;DHT22;5599;52.210;21.046;2023-09-19T09:35:57;24.70;1.00
11091;DHT22;5599;52.210;21.046;2023-09-19T09:38:29;24.60;20.60
11091;DHT22;5599;52.210;21.046;2023-09-19T09:41:01;24.40;99.90
11091;DHT22;5599;52.210;21.046;2023-09-19T09:43:41;24.40;99.90
11091;DHT22;5599;52.210;21.046;2023-09-19T09:46:16;24.40;99.90
11091;DHT22;5599;52.210;21.046;2023-09-19T09:49:03;24.20;1.00
11091;DHT22;5599;52.210;21.046;2023-09-19T09:51:58;24.00;99.90
11091;DHT22;5599;52.210;21.046;2023-09-19T09:54:29;23.90;99.90
11091;DHT22;5599;52.210;21.046;2023-09-19T09:57:05;23.80;1.00
11091;DHT22;5599;52.210;21.046;2023-09-19T09:59:46;23.70;1.00
11091;DHT22;5599;52.210;21.046;2023-09-19T10:02:25;23.70;99.90
11091;DHT22;5599;52.210;21.046;2023-09-19T10:04:58;23.60;1.00
11091;DHT22;5599;52.210;21.046;2023-09-19T10:07:39;23.40;99.90
11091;DHT22;5599;52.210;21.046;2023-09-19T10:10:14;23.30;99.90
11091;DHT22;5599;52.210;21.046;2023-09-19T10:12:49;23.10;99.90
11091;DHT22;5599;52.210;21.046;2023-09-19T10:15:24;23.00;99.90
11091;DHT22;5599;52.210;21.046;2023-09-19T10:18:01;22.90;1.00
11091;DHT22;5599;52.210;21.046;2023-09-19T10:20:31;22.80;99.90
11091;DHT22;5599;52.210;21.046;2023-09-19T10:23:09;22.70;99.90
11091;DHT22;5599;52.210;21.046;2023-09-19T10:25:42;22.50;99.90
11091;DHT22;5599;52.210;21.046;2023-09-19T10:28:15;22.50;99.90
11091;DHT22;5599;52.210;21.046;2023-09-19T10:30:52;22.50;1.00
11091;DHT22;5599;52.210;21.046;2023-09-19T10:33:23;22.40;99.90
11091;DHT22;5599;52.210;21.046;2023-09-19T10:35:58;22.40;1.00
11091;DHT22;5599;52.210;21.046;2023-09-19T10:38:30;22.50;99.90
11091;DHT22;5599;52.210;21.046;2023-09-19T10:41:02;22.50;99.90
11091;DHT22;5599;52.210;21.046;2023-09-19T10:43:33;22.40;1.00
11091;DHT22;5599;52.210;21.046;2023-09-19T10:46:07;22.40;1.00
11091;DHT22;5599;52.210;21.046;2023-09-19T10:48:41;22.50;1.00
11091;DHT22;5599;52.210;21.046;2023-09-19T10:51:20;22.50;1.00
11091;DHT22;5599;52.210;21.046;2023-09-19T10:53:57;22.60;99.90
11091;DHT22;5599;52.210;21.046;2023-09-19T10:56:32;22.70;99.90
11091;DHT22;5599;52.210;21.046;2023-09-19T10:59:08;22.80;99.90
11091;DHT22;5599;52.210;21.046;2023-09-19T11:01:46;22.80;1.00
11091;DHT22;5599;52.210;21.046;2023-09-19T11:04:27;22.70;1.00
11091;DHT22;5599;52.210;21.046;2023-09-19T11:07:02;22.80;1.00
11091;DHT22;5599;52.210;21.046;2023-09-19T11:09:50;22.80;99.90
11091;DHT22;5599;52.210;21.046;2023-09-19T11:12:49;22.80;60.00
11091;DHT22;5599;52.210;21.046;2023-09-19T11:18:54;22.70;99.90
11091;DHT22;5599;52.210;21.046;2023-09-19T11:21:52;22.80;1.00
11091;DHT22;5599;52.210;21.046;2023-09-19T11:24:28;22.90;1.00
11091;DHT22;5599;52.210;21.046;2023-09-19T11:27:16;22.80;1.00
11091;DHT22;5599;52.210;21.046;2023-09-19T11:29:48;22.90;1.00
11091;DHT22;5599;52.210;21.046;2023-09-19T11:35:59;22.90;66.20
11091;DHT22;5599;52.210;21.046;2023-09-19T11:41:42;23.00;99.90
11091;DHT22;5599;52.210;21.046;2023-09-19T11:44:34;23.00;75.90
11091;DHT22;5599;52.210;21.046;2023-09-19T11:47:06;23.00;1.00
11091;DHT22;5599;52.210;21.046;2023-09-19T11:49:40;22.90;99.90
11091;DHT22;5599;52.210;21.046;2023-09-19T11:52:14;22.90;99.90
11091;DHT22;5599;52.210;21.046;2023-09-19T11:54:55;22.80;1.00
11091;DHT22;5599;52.210;21.046;2023-09-19T11:57:26;22.70;1.00
11091;DHT22;5599;52.210;21.046;2023-09-19T11:59:59;22.80;99.90
11091;DHT22;5599;52.210;21.046;2023-09-19T12:02:39;22.70;1.00
11091;DHT22;5599;52.210;21.046;2023-09-19T12:05:13;22.70;99.90
11091;DHT22;5599;52.210;21.046;2023-09-19T12:07:43;22.60;99.90
11091;DHT22;5599;52.210;21.046;2023-09-19T12:10:15;22.50;99.90
11091;DHT22;5599;52.210;21.046;2023-09-19T12:12:47;22.40;80.00
11091;DHT22;5599;52.210;21.046;2023-09-19T12:15:24;22.40;86.00
11091;DHT22;5599;52.210;21.046;2023-09-19T12:18:00;22.40;1.00
11091;DHT22;5599;52.210;21.046;2023-09-19T12:20:43;22.30;99.90
11091;DHT22;5599;52.210;21.046;2023-09-19T12:23:20;22.30;1.00
11091;DHT22;5599;52.210;21.046;2023-09-19T12:25:49;22.30;58.00
11091;DHT22;5599;52.210;21.046;2023-09-19T12:28:21;22.30;99.90
11091;DHT22;5599;52.210;21.046;2023-09-19T12:30:54;22.30;1.00
11091;DHT22;5599;52.210;21.046;2023-09-19T12:33:26;22.30;58.30
11091;DHT22;5599;52.210;21.046;2023-09-19T12:35:56;22.40;1.00
11091;DHT22;5599;52.210;21.046;2023-09-19T12:38:27;22.50;1.00
11091;DHT22;5599;52.210;21.046;2023-09-19T12:41:02;22.50;99.90
11091;DHT22;5599;52.210;21.046;2023-09-19T12:43:35;22.50;1.00
11091;DHT22;5599;52.210;21.046;2023-09-19T12:46:08;22.50;71.40
11091;DHT22;5599;52.210;21.046;2023-09-19T12:48:38;22.40;99.90
11091;DHT22;5599;52.210;21.046;2023-09-19T12:51:12;22.40;1.00
11091;DHT22;5599;52.210;21.046;2023-09-19T12:53:45;22.30;99.90
11091;DHT22;5599;52.210;21.046;2023-09-19T12:56:18;22.40;1.00
11091;DHT22;5599;52.210;21.046;2023-09-19T12:58:51;22.30;99.90
11091;DHT22;5599;52.210;21.046;2023-09-19T13:01:25;22.20;64.50
11091;DHT22;5599;52.210;21.046;2023-09-19T13:04:15;22.30;99.90
11091;DHT22;5599;52.210;21.046;2023-09-19T13:06:49;22.30;1.00
11091;DHT22;5599;52.210;21.046;2023-09-19T13:09:20;22.30;99.90
11091;DHT22;5599;52.210;21.046;2023-09-19T13:11:51;22.30;99.90
11091;DHT22;5599;52.210;21.046;2023-09-19T13:14:22;22.40;26.50
11091;DHT22;5599;52.210;21.046;2023-09-19T13:16:59;22.40;99.90
11091;DHT22;5599;52.210;21.046;2023-09-19T13:19:39;22.40;99.90
11091;DHT22;5599;52.210;21.046;2023-09-19T13:22:37;22.50;14.90
11091;DHT22;5599;52.210;21.046;2023-09-19T13:25:10;22.60;1.00
11091;DHT22;5599;52.210;21.046;2023-09-19T13:27:43;22.70;1.00
11091;DHT22;5599;52.210;21.046;2023-09-19T13:30:13;22.70;1.00
11091;DHT22;5599;52.210;21.046;2023-09-19T13:32:44;22.60;1.00
11091;DHT22;5599;52.210;21.046;2023-09-19T13:35:15;22.60;1.00
11091;DHT22;5599;52.210;21.046;2023-09-19T13:37:46;22.60;83.30
11091;DHT22;5599;52.210;21.046;2023-09-19T13:40:17;22.60;99.90
11091;DHT22;5599;52.210;21.046;2023-09-19T13:42:46;22.60;99.90
11091;DHT22;5599;52.210;21.046;2023-09-19T13:45:16;22.60;99.90
11091;DHT22;5599;52.210;21.046;2023-09-19T13:47:51;22.60;99.90
11091;DHT22;5599;52.210;21.046;2023-09-19T13:50:21;22.60;1.00
11091;DHT22;5599;52.210;21.046;2023-09-19T13:52:52;22.60;1.00
11091;DHT22;5599;52.210;21.046;2023-09-19T13:55:22;22.50;99.90
11091;DHT22;5599;52.210;21.046;2023-09-19T13:57:53;22.60;1.00
11091;DHT22;5599;52.210;21.046;2023-09-19T14:00:24;22.70;1.00
11091;DHT22;5599;52.210;21.046;2023-09-19T14:02:55;22.70;99.90
11091;DHT22;5599;52.210;21.046;2023-09-19T14:05:24;22.60;99.90
11091;DHT22;5599;52.210;21.046;2023-09-19T14:07:54;22.70;1.00
11091;DHT22;5599;52.210;21.046;2023-09-19T14:10:25;22.70;1.00
11091;DHT22;5599;52.210;21.046;2023-09-19T14:12:55;22.70;1.00
11091;DHT22;5599;52.210;21.046;2023-09-19T14:15:25;22.80;99.90
11091;DHT22;5599;52.210;21.046;2023-09-19T14:17:59;22.70;99.90
11091;DHT22;5599;52.210;21.046;2023-09-19T14:20:29;22.70;99.90
11091;DHT22;5599;52.210;21.046;2023-09-19T14:22:59;22.70;99.90
11091;DHT22;5599;52.210;21.046;2023-09-19T14:25:29;22.70;99.90
11091;DHT22;5599;52.210;21.046;2023-09-19T14:27:59;22.70;66.40
11091;DHT22;5599;52.210;21.046;2023-09-19T14:30:28;22.70;99.90
11091;DHT22;5599;52.210;21.046;2023-09-19T14:32:59;22.70;1.00
11091;DHT22;5599;52.210;21.046;2023-09-19T14:35:28;22.60;1.00
11091;DHT22;5599;52.210;21.046;2023-09-19T14:37:58;22.60;1.00
11091;DHT22;5599;52.210;21.046;2023-09-19T14:40:28;22.60;99.90
11091;DHT22;5599;52.210;21.046;2023-09-19T14:42:57;22.60;99.90
11091;DHT22;5599;52.210;21.046;2023-09-19T14:45:27;22.50;11.90
11091;DHT22;5599;52.210;21.046;2023-09-19T14:47:56;22.50;1.00
11091;DHT22;5599;52.210;21.046;2023-09-19T14:50:27;22.50;99.90
11091;DHT22;5599;52.210;21.046;2023-09-19T14:52:58;22.50;99.90
11091;DHT22;5599;52.210;21.046;2023-09-19T14:55:29;22.50;99.90
11091;DHT22;5599;52.210;21.046;2023-09-19T14:58:02;22.50;1.00
11091;DHT22;5599;52.210;21.046;2023-09-19T15:00:31;22.40;19.00
11091;DHT22;5599;52.210;21.046;2023-09-19T15:03:03;22.40;99.90
11091;DHT22;5599;52.210;21.046;2023-09-19T15:05:35;22.40;99.90
11091;DHT22;5599;52.210;21.046;2023-09-19T15:08:06;22.30;1.00
11091;DHT22;5599;52.210;21.046;2023-09-19T15:10:35;22.30;1.00
11091;DHT22;5599;52.210;21.046;2023-09-19T15:13:05;22.40;1.00
11091;DHT22;5599;52.210;21.046;2023-09-19T15:15:36;22.40;1.00
11091;DHT22;5599;52.210;21.046;2023-09-19T15:18:06;22.40;99.90
11091;DHT22;5599;52.210;21.046;2023-09-19T15:20:45;22.40;60.30
11091;DHT22;5599;52.210;21.046;2023-09-19T15:23:16;22.40;99.90
11091;DHT22;5599;52.210;21.046;2023-09-19T15:25:59;22.40;99.90
11091;DHT22;5599;52.210;21.046;2023-09-19T15:28:30;22.40;1.00
11091;DHT22;5599;52.210;21.046;2023-09-19T15:31:02;22.40;1.00
11091;DHT22;5599;52.210;21.046;2023-09-19T15:33:33;22.40;1.00
11091;DHT22;5599;52.210;21.046;2023-09-19T15:36:06;22.40;1.00
11091;DHT22;5599;52.210;21.046;2023-09-19T15:38:57;22.40;1.00
11091;DHT22;5599;52.210;21.046;2023-09-19T15:41:29;22.50;1.00
11091;DHT22;5599;52.210;21.046;2023-09-19T15:44:00;22.50;1.00
11091;DHT22;5599;52.210;21.046;2023-09-19T15:46:32;22.50;99.90
11091;DHT22;5599;52.210;21.046;2023-09-19T15:49:04;22.50;99.90
11091;DHT22;5599;52.210;21.046;2023-09-19T15:51:37;22.50;99.90
11091;DHT22;5599;52.210;21.046;2023-09-19T15:54:09;22.50;99.90
11091;DHT22;5599;52.210;21.046;2023-09-19T15:56:39;22.50;99.90
11091;DHT22;5599;52.210;21.046;2023-09-19T15:59:09;22.60;99.90
11091;DHT22;5599;52.210;21.046;2023-09-19T16:01:41;22.60;99.90
11091;DHT22;5599;52.210;21.046;2023-09-19T16:04:12;22.50;99.90
11091;DHT22;5599;52.210;21.046;2023-09-19T16:06:44;22.50;99.90
11091;DHT22;5599;52.210;21.046;2023-09-19T16:09:14;22.50;99.90
11091;DHT22;5599;52.210;21.046;2023-09-19T16:11:46;22.50;99.90
11091;DHT22;5599;52.210;21.046;2023-09-19T16:14:17;22.50;99.90
11091;DHT22;5599;52.210;21.046;2023-09-19T16:16:47;22.50;99.90
11091;DHT22;5599;52.210;21.046;2023-09-19T16:19:18;22.40;99.90
11091;DHT22;5599;52.210;21.046;2023-09-19T16:21:51;22.30;1.00
11091;DHT22;5599;52.210;21.046;2023-09-19T16:24:21;22.30;99.90